createdAt,value
2018-12-18T00:00:10.337Z,-3.12
2018-12-18T00:02:38.042Z,-3.43
2018-12-18T00:05:07.960Z,-3.21
2018-12-18T00:07:35.672Z,-3.14
2018-12-18T00:10:04.870Z,-3.11
2018-12-18T00:12:32.464Z,-3.06
2018-12-18T00:15:00.195Z,-3.11
2018-12-18T00:17:27.887Z,-3.18
2018-12-18T00:19:55.673Z,-3.21
2018-12-18T00:22:23.379Z,-3.16
2018-12-18T00:24:52.184Z,-3.11
2018-12-18T00:27:20.032Z,-3.19
2018-12-18T00:29:47.768Z,-3.09
2018-12-18T00:32:15.498Z,-3.01
2018-12-18T00:34:43.142Z,-3.15
2018-12-18T00:37:10.802Z,-3.03
2018-12-18T00:39:38.576Z,-2.98
2018-12-18T00:42:08.286Z,-3.03
2018-12-18T00:44:35.946Z,-2.90
2018-12-18T00:47:03.549Z,-2.95
2018-12-18T00:49:31.223Z,-2.89
2018-12-18T00:51:58.832Z,-2.95
2018-12-18T00:54:26.530Z,-2.92
2018-12-18T00:56:54.200Z,-3.00
2018-12-18T00:59:21.844Z,-2.96
2018-12-18T01:01:55.181Z,-3.08
2018-12-18T01:04:22.820Z,-3.04
2018-12-18T01:06:50.485Z,-2.97
2018-12-18T01:09:18.153Z,-3.03
2018-12-18T01:11:46.056Z,-3.02
2018-12-18T01:14:13.728Z,-3.08
2018-12-18T01:16:41.334Z,-3.02
2018-12-18T01:19:08.999Z,-3.09
2018-12-18T01:21:36.730Z,-3.09
2018-12-18T01:24:04.426Z,-3.09
2018-12-18T01:26:32.106Z,-3.13
2018-12-18T01:28:59.876Z,-3.18
2018-12-18T01:31:27.538Z,-3.26
2018-12-18T01:33:59.260Z,-3.43
2018-12-18T01:36:25.004Z,-3.49
2018-12-18T01:38:52.739Z,-3.51
2018-12-18T01:41:21.408Z,-3.43
2018-12-18T01:43:49.123Z,-3.49
2018-12-18T01:46:16.801Z,-3.59
2018-12-18T01:48:44.477Z,-3.65
2018-12-18T01:51:12.876Z,-3.81
2018-12-18T01:53:40.459Z,-3.83
2018-12-18T01:56:08.095Z,-3.89
2018-12-18T01:58:35.679Z,-4.05
2018-12-18T02:01:03.354Z,-4.03
2018-12-18T02:03:30.937Z,-3.97
2018-12-18T02:05:58.662Z,-4.00
2018-12-18T02:08:26.269Z,-4.07
2018-12-18T02:10:53.992Z,-4.03
2018-12-18T02:13:21.671Z,-4.25
2018-12-18T02:15:49.295Z,-4.19
2018-12-18T02:18:16.948Z,-4.17
2018-12-18T02:20:44.533Z,-4.15
2018-12-18T02:23:12.314Z,-4.14
2018-12-18T02:25:39.971Z,-4.06
2018-12-18T02:28:07.600Z,-4.18
2018-12-18T02:30:35.209Z,-4.18
2018-12-18T02:33:02.940Z,-4.18
2018-12-18T02:35:30.580Z,-4.09
2018-12-18T02:37:58.241Z,-4.12
2018-12-18T02:40:25.955Z,-4.25
2018-12-18T02:42:53.683Z,-4.32
2018-12-18T02:45:21.337Z,-4.36
2018-12-18T02:47:48.964Z,-4.37
2018-12-18T02:50:16.685Z,-4.35
2018-12-18T02:52:44.313Z,-4.37
2018-12-18T02:55:11.896Z,-4.35
2018-12-18T02:57:39.617Z,-4.46
2018-12-18T03:00:07.848Z,-4.47
2018-12-18T03:02:35.436Z,-4.33
2018-12-18T03:05:03.550Z,-4.27
2018-12-18T03:07:31.136Z,-4.30
2018-12-18T03:09:58.731Z,-4.38
2018-12-18T03:12:26.378Z,-4.31
2018-12-18T03:14:53.958Z,-4.33
2018-12-18T03:17:21.536Z,-4.34
2018-12-18T03:19:49.174Z,-4.29
2018-12-18T03:22:16.842Z,-4.33
2018-12-18T03:24:44.678Z,-4.19
2018-12-18T03:27:12.382Z,-4.07
2018-12-18T03:29:40.031Z,-4.00
2018-12-18T03:32:09.816Z,-3.97
2018-12-18T03:34:37.483Z,-4.06
2018-12-18T03:37:05.096Z,-3.96
2018-12-18T03:39:32.728Z,-3.98
2018-12-18T03:42:00.335Z,-4.00
2018-12-18T03:44:27.980Z,-4.02
2018-12-18T03:46:55.737Z,-3.97
2018-12-18T03:49:23.539Z,-3.97
2018-12-18T03:51:51.253Z,-3.97
2018-12-18T03:54:18.928Z,-3.95
2018-12-18T03:56:47.441Z,-4.01
2018-12-18T03:59:15.088Z,-4.04
2018-12-18T04:01:42.674Z,-4.10
2018-12-18T04:04:10.249Z,-4.05
2018-12-18T04:06:37.913Z,-4.13
2018-12-18T04:09:06.281Z,-4.14
2018-12-18T04:11:36.005Z,-4.14
2018-12-18T04:14:03.602Z,-3.94
2018-12-18T04:16:31.247Z,-3.96
2018-12-18T04:18:58.850Z,-4.15
2018-12-18T04:21:26.502Z,-4.05
2018-12-18T04:23:54.144Z,-4.11
2018-12-18T04:26:21.780Z,-4.19
2018-12-18T04:28:49.469Z,-4.26
2018-12-18T04:31:17.135Z,-4.17
2018-12-18T04:33:44.783Z,-4.08
2018-12-18T04:36:12.362Z,-4.14
2018-12-18T04:38:40.005Z,-4.08
2018-12-18T04:41:07.604Z,-3.96
2018-12-18T04:43:35.270Z,-3.96
2018-12-18T04:46:02.876Z,-3.99
2018-12-18T04:48:30.568Z,-3.93
2018-12-18T04:50:58.249Z,-4.03
2018-12-18T04:53:25.875Z,-4.01
2018-12-18T04:55:53.477Z,-3.99
2018-12-18T04:58:21.129Z,-3.97
2018-12-18T05:00:48.713Z,-4.02
2018-12-18T05:03:16.364Z,-3.91
2018-12-18T05:05:44.024Z,-3.78
2018-12-18T05:08:11.615Z,-3.79
2018-12-18T05:10:39.270Z,-3.76
2018-12-18T05:13:06.938Z,-3.78
2018-12-18T05:15:34.835Z,-3.76
2018-12-18T05:18:02.499Z,-3.87
2018-12-18T05:20:30.245Z,-3.81
2018-12-18T05:22:57.987Z,-3.79
2018-12-18T05:25:25.722Z,-3.79
2018-12-18T05:27:53.778Z,-3.91
2018-12-18T05:30:21.950Z,-3.93
2018-12-18T05:32:49.954Z,-3.89
2018-12-18T05:35:17.604Z,-3.89
2018-12-18T05:37:45.324Z,-3.95
2018-12-18T05:40:13.070Z,-3.93
2018-12-18T05:42:40.952Z,-3.92
2018-12-18T05:45:08.712Z,-3.91
2018-12-18T05:47:36.406Z,-3.93
2018-12-18T05:50:05.717Z,-3.87
2018-12-18T05:52:33.437Z,-3.85
2018-12-18T05:55:01.188Z,-3.86
2018-12-18T05:57:29.003Z,-3.80
2018-12-18T05:59:56.738Z,-3.88
2018-12-18T06:02:24.396Z,-3.85
2018-12-18T06:04:51.985Z,-3.81
2018-12-18T06:07:19.610Z,-3.55
2018-12-18T06:09:47.211Z,-3.75
2018-12-18T06:12:14.912Z,-3.86
2018-12-18T06:14:42.531Z,-3.97
2018-12-18T06:17:10.171Z,-3.96
2018-12-18T06:19:37.824Z,-4.07
2018-12-18T06:22:05.620Z,-4.03
2018-12-18T06:24:33.224Z,-3.98
2018-12-18T06:27:00.868Z,-4.07
2018-12-18T06:29:28.464Z,-4.09
2018-12-18T06:31:56.256Z,-4.17
2018-12-18T06:34:23.837Z,-4.17
2018-12-18T06:36:51.477Z,-4.24
2018-12-18T06:39:19.175Z,-4.21
2018-12-18T06:41:47.074Z,-4.12
2018-12-18T06:44:14.809Z,-4.18
2018-12-18T06:46:42.477Z,-4.21
2018-12-18T06:49:10.132Z,-4.11
2018-12-18T06:51:38.037Z,-4.09
2018-12-18T06:54:05.654Z,-4.20
2018-12-18T06:56:33.462Z,-4.07
2018-12-18T06:59:01.061Z,-3.98
2018-12-18T07:01:28.663Z,-3.96
2018-12-18T07:03:56.304Z,-3.95
2018-12-18T07:06:23.963Z,-3.85
2018-12-18T07:08:51.602Z,-3.85
2018-12-18T07:11:19.261Z,-3.96
2018-12-18T07:13:46.898Z,-3.85
2018-12-18T07:16:14.559Z,-3.86
2018-12-18T07:18:42.473Z,-3.82
2018-12-18T07:21:10.267Z,-3.75
2018-12-18T07:23:37.883Z,-3.73
2018-12-18T07:26:05.550Z,-3.66
2018-12-18T07:28:33.288Z,-3.60
2018-12-18T07:31:01.005Z,-3.64
2018-12-18T07:33:29.055Z,-3.52
2018-12-18T07:35:56.648Z,-3.43
2018-12-18T07:38:25.701Z,-3.42
2018-12-18T07:40:53.286Z,-3.36
2018-12-18T07:43:21.015Z,-3.37
2018-12-18T07:45:48.717Z,-3.31
2018-12-18T07:48:16.363Z,-3.17
2018-12-18T07:50:43.997Z,-3.07
2018-12-18T07:53:11.768Z,-2.96
2018-12-18T07:55:39.388Z,-2.90
2018-12-18T07:58:07.080Z,-2.96
2018-12-18T08:00:35.758Z,-2.77
2018-12-18T08:03:03.473Z,-2.83
2018-12-18T08:05:31.249Z,-2.66
2018-12-18T08:07:58.907Z,-2.63
2018-12-18T08:10:27.551Z,-2.81
2018-12-18T08:12:55.231Z,-2.75
2018-12-18T08:15:22.836Z,-2.69
2018-12-18T08:17:50.497Z,-2.55
2018-12-18T08:20:18.154Z,-2.63
2018-12-18T08:22:45.910Z,-2.49
2018-12-18T08:25:13.566Z,-2.33
2018-12-18T08:27:41.400Z,-1.67
2018-12-18T08:30:09.043Z,-0.94
2018-12-18T08:32:36.666Z,-0.88
2018-12-18T08:35:05.320Z,-0.14
2018-12-18T08:37:33.259Z,-0.45
2018-12-18T08:40:00.993Z,0.12
2018-12-18T08:42:28.579Z,0.04
2018-12-18T08:44:56.798Z,0.85
2018-12-18T08:47:24.470Z,1.26
2018-12-18T08:49:52.137Z,1.11
2018-12-18T08:52:20.047Z,1.57
2018-12-18T08:54:47.661Z,0.82
2018-12-18T08:57:15.617Z,1.80
2018-12-18T08:59:43.478Z,2.60
2018-12-18T09:02:11.247Z,1.99
2018-12-18T09:04:38.923Z,2.72
2018-12-18T09:07:06.615Z,3.26
2018-12-18T09:09:34.266Z,2.59
2018-12-18T09:12:01.927Z,2.24
2018-12-18T09:14:30.077Z,2.07
2018-12-18T09:17:03.161Z,2.61
2018-12-18T09:19:30.842Z,3.17
2018-12-18T09:21:58.623Z,3.29
2018-12-18T09:24:26.313Z,2.74
2018-12-18T09:26:53.918Z,3.62
2018-12-18T09:29:21.572Z,3.65
2018-12-18T09:31:49.440Z,4.40
2018-12-18T09:34:17.110Z,4.67
2018-12-18T09:36:45.588Z,4.76
2018-12-18T09:39:19.266Z,5.41
2018-12-18T09:41:57.776Z,4.95
2018-12-18T09:44:25.843Z,4.85
2018-12-18T09:46:53.433Z,4.59
2018-12-18T09:49:21.302Z,4.71
2018-12-18T09:51:48.937Z,4.83
2018-12-18T09:54:16.919Z,5.78
2018-12-18T09:56:51.964Z,5.09
2018-12-18T09:59:19.596Z,4.74
2018-12-18T10:01:47.189Z,5.05
2018-12-18T10:04:14.898Z,4.32
2018-12-18T10:06:42.676Z,4.61
2018-12-18T10:09:10.415Z,4.31
2018-12-18T10:11:38.192Z,4.25
2018-12-18T10:14:05.831Z,4.01
2018-12-18T10:16:33.445Z,4.59
2018-12-18T10:19:01.285Z,4.18
2018-12-18T10:21:28.922Z,4.88
2018-12-18T10:23:56.610Z,4.62
2018-12-18T10:26:24.275Z,5.63
2018-12-18T10:28:51.851Z,5.62
2018-12-18T10:31:19.514Z,6.67
2018-12-18T10:33:48.109Z,5.69
2018-12-18T10:36:16.030Z,5.84
2018-12-18T10:38:43.696Z,4.74
2018-12-18T10:41:11.352Z,6.31
2018-12-18T10:43:38.987Z,7.35
2018-12-18T10:46:06.623Z,6.57
2018-12-18T10:48:34.247Z,5.59
2018-12-18T10:51:01.881Z,6.19
2018-12-18T10:53:29.502Z,5.63
2018-12-18T10:55:57.206Z,5.98
2018-12-18T10:58:24.961Z,6.66
2018-12-18T11:00:58.318Z,6.95
2018-12-18T11:03:26.997Z,6.13
2018-12-18T11:05:54.812Z,6.35
2018-12-18T11:08:22.470Z,5.78
2018-12-18T11:10:50.879Z,7.11
2018-12-18T11:13:18.731Z,7.51
2018-12-18T11:15:46.454Z,6.34
2018-12-18T11:18:14.301Z,6.99
2018-12-18T11:20:42.002Z,7.35
2018-12-18T11:23:09.974Z,6.74
2018-12-18T11:25:37.615Z,6.63
2018-12-18T11:28:05.886Z,6.25
2018-12-18T11:30:33.538Z,5.84
2018-12-18T11:33:01.175Z,5.72
2018-12-18T11:35:28.816Z,5.79
2018-12-18T11:37:56.956Z,6.06
2018-12-18T11:40:24.696Z,5.60
2018-12-18T11:42:52.843Z,6.06
2018-12-18T11:45:20.662Z,7.15
2018-12-18T11:47:49.949Z,6.85
2018-12-18T11:50:17.790Z,6.79
2018-12-18T11:52:45.655Z,6.81
2018-12-18T11:55:13.294Z,6.99
2018-12-18T11:57:41.022Z,6.82
2018-12-18T12:00:10.621Z,7.01
2018-12-18T12:02:42.813Z,7.27
2018-12-18T12:05:07.869Z,6.36
2018-12-18T12:07:35.660Z,6.44
2018-12-18T12:10:03.940Z,6.79
2018-12-18T12:12:31.689Z,6.46
2018-12-18T12:14:59.450Z,6.19
2018-12-18T12:17:27.724Z,6.52
2018-12-18T12:19:55.454Z,5.93
2018-12-18T12:22:23.209Z,5.83
2018-12-18T12:24:50.860Z,6.01
2018-12-18T12:27:24.067Z,6.31
2018-12-18T12:29:51.736Z,6.53
2018-12-18T12:32:19.338Z,6.19
2018-12-18T12:34:47.241Z,6.35
2018-12-18T12:37:14.815Z,6.24
2018-12-18T12:39:42.453Z,6.18
2018-12-18T12:42:10.097Z,6.55
2018-12-18T12:44:37.678Z,6.63
2018-12-18T12:47:05.298Z,6.59
2018-12-18T12:49:38.587Z,7.10
2018-12-18T12:52:06.160Z,6.72
2018-12-18T12:54:33.743Z,6.37
2018-12-18T12:57:01.399Z,5.51
2018-12-18T12:59:29.089Z,6.03
2018-12-18T13:01:56.749Z,5.84
2018-12-18T13:04:24.360Z,6.13
2018-12-18T13:06:52.066Z,5.40
2018-12-18T13:09:19.687Z,5.23
2018-12-18T13:11:47.377Z,5.34
2018-12-18T13:14:15.001Z,5.47
2018-12-18T13:16:42.729Z,5.45
2018-12-18T13:19:10.341Z,5.34
2018-12-18T13:21:39.201Z,5.42
2018-12-18T13:24:06.817Z,5.06
2018-12-18T13:26:34.669Z,5.08
2018-12-18T13:29:02.312Z,4.71
2018-12-18T13:31:30.928Z,4.67
2018-12-18T13:33:58.652Z,4.24
2018-12-18T13:36:26.288Z,3.93
2018-12-18T13:38:54.008Z,3.83
2018-12-18T13:41:21.690Z,4.12
2018-12-18T13:43:49.323Z,3.96
2018-12-18T13:46:17.043Z,4.01
2018-12-18T13:48:44.712Z,3.85
2018-12-18T13:51:12.387Z,4.05
2018-12-18T13:53:40.063Z,4.04
2018-12-18T13:56:07.863Z,3.71
2018-12-18T13:58:35.466Z,3.60
2018-12-18T14:01:03.197Z,3.65
2018-12-18T14:03:30.990Z,3.67
2018-12-18T14:05:58.657Z,3.43
2018-12-18T14:08:27.105Z,3.40
2018-12-18T14:10:54.870Z,2.96
2018-12-18T14:13:22.597Z,2.96
2018-12-18T14:15:50.299Z,2.88
2018-12-18T14:18:17.887Z,2.97
2018-12-18T14:20:45.586Z,2.87
2018-12-18T14:23:14.354Z,2.56
2018-12-18T14:25:42.773Z,2.53
2018-12-18T14:28:10.428Z,2.27
2018-12-18T14:30:38.211Z,2.09
2018-12-18T14:33:06.706Z,2.17
2018-12-18T14:35:34.456Z,2.04
2018-12-18T14:38:02.928Z,2.24
2018-12-18T14:40:30.740Z,1.97
2018-12-18T14:42:58.618Z,1.87
2018-12-18T14:45:26.356Z,1.61
2018-12-18T14:47:55.376Z,1.63
2018-12-18T14:50:23.335Z,1.48
2018-12-18T14:52:51.309Z,1.46
2018-12-18T14:55:20.615Z,1.29
2018-12-18T14:57:48.682Z,1.13
2018-12-18T15:00:18.935Z,1.03
2018-12-18T15:02:46.976Z,1.11
2018-12-18T15:05:14.759Z,0.93
2018-12-18T15:07:42.432Z,0.86
2018-12-18T15:10:11.051Z,0.74
2018-12-18T15:12:40.857Z,0.61
2018-12-18T15:15:09.593Z,0.37
2018-12-18T15:17:37.276Z,0.56
2018-12-18T15:20:09.405Z,0.45
2018-12-18T15:22:37.056Z,0.27
2018-12-18T15:25:06.808Z,0.23
2018-12-18T15:27:35.262Z,0.12
2018-12-18T15:30:05.496Z,0.18
2018-12-18T15:32:33.614Z,0.15
2018-12-18T15:35:01.457Z,-0.01
2018-12-18T15:37:30.547Z,-0.04
2018-12-18T15:40:02.248Z,-0.21
2018-12-18T15:42:31.980Z,-0.17
2018-12-18T15:45:00.073Z,-0.39
2018-12-18T15:47:28.370Z,-0.47
2018-12-18T15:49:57.314Z,-0.42
2018-12-18T15:52:26.443Z,-0.50
2018-12-18T15:54:55.270Z,-0.67
2018-12-18T15:57:26.154Z,-0.65
2018-12-18T15:59:54.028Z,-0.82
2018-12-18T16:02:25.587Z,-0.68
2018-12-18T16:04:53.471Z,-0.77
2018-12-18T16:07:21.153Z,-0.77
2018-12-18T16:09:48.970Z,-0.91
2018-12-18T16:12:17.873Z,-1.13
2018-12-18T16:14:45.619Z,-1.27
2018-12-18T16:17:13.514Z,-1.16
2018-12-18T16:19:41.497Z,-1.26
2018-12-18T16:22:11.109Z,-1.14
2018-12-18T16:24:39.762Z,-1.32
2018-12-18T16:27:07.616Z,-1.35
2018-12-18T16:29:35.471Z,-1.41
2018-12-18T16:32:03.259Z,-1.45
2018-12-18T16:34:32.176Z,-1.50
2018-12-18T16:37:00.064Z,-1.52
2018-12-18T16:39:29.623Z,-1.60
2018-12-18T16:41:58.907Z,-1.52
2018-12-18T16:44:26.587Z,-1.43
2018-12-18T16:46:55.219Z,-1.52
2018-12-18T16:49:23.352Z,-1.52
2018-12-18T16:51:51.074Z,-1.70
2018-12-18T16:54:19.927Z,-1.69
2018-12-18T16:56:49.212Z,-1.73
2018-12-18T16:59:18.161Z,-1.82
2018-12-18T17:01:46.225Z,-1.81
2018-12-18T17:04:14.017Z,-1.86
2018-12-18T17:06:41.709Z,-1.92
2018-12-18T17:09:09.327Z,-2.03
2018-12-18T17:11:38.215Z,-2.10
2018-12-18T17:14:06.378Z,-2.05
2018-12-18T17:16:35.096Z,-1.99
2018-12-18T17:19:04.186Z,-2.17
2018-12-18T17:21:32.764Z,-2.28
2018-12-18T17:24:01.266Z,-2.12
2018-12-18T17:26:29.056Z,-2.21
2018-12-18T17:28:58.669Z,-2.21
2018-12-18T17:31:26.697Z,-2.28
2018-12-18T17:33:55.891Z,-2.30
2018-12-18T17:36:27.294Z,-2.27
2018-12-18T17:38:56.127Z,-2.49
2018-12-18T17:41:25.005Z,-2.56
2018-12-18T17:43:53.168Z,-2.47
2018-12-18T17:46:26.337Z,-2.70
2018-12-18T17:48:55.437Z,-2.84
2018-12-18T17:51:23.194Z,-2.76
2018-12-18T17:53:50.841Z,-2.90
2018-12-18T17:56:18.508Z,-2.87
2018-12-18T17:58:46.130Z,-2.72
2018-12-18T18:01:14.983Z,-2.93
2018-12-18T18:03:42.663Z,-2.83
2018-12-18T18:06:10.429Z,-2.89
2018-12-18T18:08:39.259Z,-2.94
2018-12-18T18:11:06.976Z,-2.91
2018-12-18T18:13:34.614Z,-2.92
2018-12-18T18:16:02.320Z,-3.00
2018-12-18T18:18:29.960Z,-2.92
2018-12-18T18:20:57.800Z,-2.95
2018-12-18T18:23:25.433Z,-3.07
2018-12-18T18:25:53.394Z,-3.15
2018-12-18T18:28:20.997Z,-3.21
2018-12-18T18:30:48.682Z,-3.25
2018-12-18T18:33:16.962Z,-3.68
2018-12-18T18:35:45.139Z,-3.37
2018-12-18T18:38:12.865Z,-3.32
2018-12-18T18:40:41.398Z,-3.45
2018-12-18T18:43:09.175Z,-3.43
2018-12-18T18:45:36.971Z,-3.54
2018-12-18T18:48:04.858Z,-3.65
2018-12-18T18:50:33.779Z,-3.53
2018-12-18T18:53:01.588Z,-3.63
2018-12-18T18:55:29.299Z,-3.56
2018-12-18T18:57:56.949Z,-3.66
2018-12-18T19:00:26.009Z,-3.71
2018-12-18T19:02:54.986Z,-3.72
2018-12-18T19:05:22.852Z,-3.79
2018-12-18T19:07:56.412Z,-3.63
2018-12-18T19:10:23.012Z,-3.62
2018-12-18T19:12:53.094Z,-3.67
2018-12-18T19:15:20.952Z,-3.95
2018-12-18T19:17:48.819Z,-3.79
2018-12-18T19:20:16.890Z,-3.68
2018-12-18T19:22:48.200Z,-4.17
2018-12-18T19:25:16.803Z,-4.06
2018-12-18T19:27:46.758Z,-4.20
2018-12-18T19:30:14.780Z,-4.15
2018-12-18T19:32:42.833Z,-4.18
2018-12-18T19:35:11.045Z,-4.48
2018-12-18T19:37:39.639Z,-4.27
2018-12-18T19:40:09.046Z,-4.26
2018-12-18T19:42:37.158Z,-4.29
2018-12-18T19:45:06.472Z,-4.42
2018-12-18T19:47:36.636Z,-4.44
2018-12-18T19:50:05.123Z,-4.62
2018-12-18T19:52:34.713Z,-4.61
2018-12-18T19:55:02.969Z,-4.67
2018-12-18T19:57:30.920Z,-4.56
2018-12-18T19:59:58.713Z,-4.60
2018-12-18T20:02:28.214Z,-4.60
2018-12-18T20:04:56.030Z,-4.93
2018-12-18T20:07:23.901Z,-4.76
2018-12-18T20:09:51.947Z,-4.77
2018-12-18T20:12:19.969Z,-4.83
2018-12-18T20:14:48.753Z,-4.83
2018-12-18T20:17:16.592Z,-4.68
2018-12-18T20:19:45.484Z,-4.70
2018-12-18T20:22:13.535Z,-4.61
2018-12-18T20:24:42.631Z,-4.63
2018-12-18T20:27:11.547Z,-4.68
2018-12-18T20:29:41.391Z,-4.60
2018-12-18T20:32:10.327Z,-4.58
2018-12-18T20:34:39.735Z,-4.56
2018-12-18T20:37:08.059Z,-4.61
2018-12-18T20:39:36.941Z,-4.81
2018-12-18T20:42:04.932Z,-4.69
2018-12-18T20:44:33.611Z,-4.69
2018-12-18T20:47:01.569Z,-4.59
2018-12-18T20:49:30.306Z,-4.78
2018-12-18T20:51:58.388Z,-4.76
2018-12-18T20:54:27.918Z,-4.65
2018-12-18T20:56:55.982Z,-4.64
2018-12-18T20:59:23.901Z,-4.57
2018-12-18T21:01:51.764Z,-4.65
2018-12-18T21:04:19.580Z,-4.72
2018-12-18T21:06:47.588Z,-4.86
2018-12-18T21:09:16.265Z,-5.31
2018-12-18T21:11:44.230Z,-5.35
2018-12-18T21:14:12.822Z,-5.07
2018-12-18T21:16:40.770Z,-4.88
2018-12-18T21:19:08.858Z,-4.73
2018-12-18T21:21:37.016Z,-4.96
2018-12-18T21:24:05.201Z,-5.03
2018-12-18T21:26:34.007Z,-5.24
2018-12-18T21:29:01.707Z,-5.33
2018-12-18T21:31:29.642Z,-5.16
2018-12-18T21:33:57.521Z,-5.35
2018-12-18T21:36:29.814Z,-5.34
2018-12-18T21:38:57.499Z,-5.12
2018-12-18T21:41:25.173Z,-5.12
2018-12-18T21:43:52.902Z,-5.12
2018-12-18T21:46:20.683Z,-5.41
2018-12-18T21:48:48.543Z,-5.37
2018-12-18T21:51:16.889Z,-5.37
2018-12-18T21:53:46.690Z,-5.65
2018-12-18T21:56:14.705Z,-5.63
2018-12-18T21:58:42.621Z,-5.75
2018-12-18T22:01:11.722Z,-5.75
2018-12-18T22:03:39.743Z,-6.06
2018-12-18T22:06:07.823Z,-6.33
2018-12-18T22:08:36.907Z,-6.07
2018-12-18T22:11:05.063Z,-5.80
2018-12-18T22:13:36.339Z,-5.84
2018-12-18T22:16:04.401Z,-6.10
2018-12-18T22:18:32.369Z,-6.09
2018-12-18T22:21:01.483Z,-5.97
2018-12-18T22:23:30.601Z,-6.05
2018-12-18T22:25:58.647Z,-6.29
2018-12-18T22:28:26.547Z,-6.03
2018-12-18T22:30:54.418Z,-6.03
2018-12-18T22:33:22.268Z,-5.96
2018-12-18T22:35:49.954Z,-6.23
2018-12-18T22:38:17.771Z,-6.21
2018-12-18T22:40:45.689Z,-6.48
2018-12-18T22:43:13.725Z,-6.21
2018-12-18T22:45:41.551Z,-6.38
2018-12-18T22:48:09.418Z,-6.21
2018-12-18T22:50:37.406Z,-6.40
2018-12-18T22:53:05.244Z,-6.30
2018-12-18T22:55:32.963Z,-6.67
2018-12-18T22:58:01.007Z,-6.52
2018-12-18T23:00:34.286Z,-6.51
2018-12-18T23:03:01.933Z,-6.46
2018-12-18T23:05:30.395Z,-6.73
2018-12-18T23:07:59.119Z,-6.74
2018-12-18T23:10:27.044Z,-6.76
2018-12-18T23:12:54.818Z,-6.95
2018-12-18T23:15:22.526Z,-6.98
2018-12-18T23:17:50.495Z,-6.79
2018-12-18T23:20:18.142Z,-6.70
2018-12-18T23:22:45.749Z,-6.87
2018-12-18T23:25:13.416Z,-7.01
2018-12-18T23:27:41.291Z,-6.94
2018-12-18T23:30:09.160Z,-7.09
2018-12-18T23:32:37.032Z,-7.43
2018-12-18T23:35:04.729Z,-7.23
2018-12-18T23:37:35.263Z,-7.00
2018-12-18T23:40:04.245Z,-7.31
2018-12-18T23:42:31.896Z,-7.30
2018-12-18T23:44:59.507Z,-7.28
2018-12-18T23:47:27.175Z,-7.24
2018-12-18T23:49:54.765Z,-7.16
2018-12-18T23:52:22.680Z,-7.22
2018-12-18T23:54:50.293Z,-7.30
2018-12-18T23:57:17.940Z,-7.24
2018-12-18T23:59:45.592Z,-7.28
